Leoti, Kansas
Current Conditions -  °F | °C
As of 9:15 PM on Saturday 20 Dec 2014 (Local Time) from K3K3 Reporting Station
Clear Clear  
Wind Chill: 26°   Ceiling: Unl
Heat Index: 32°   Visibility: 10mi
Dew Point: 30°   Wind: 7mph
Humidity: 93%   Direction: 120°ESE
Pressure: 29.96"   Gusts: NA
Location:  38.48°N, 101.36°W
Report Text: K3K3 210315Z AUTO 12006KT 10SM CLR 00/M01 A2996 RMK AO2
Loading
Personal Weather Stations






























Interactive Weather Map New forecast layout! Learn more

10-Day Weather Forecast

Advertisements
Track Severe Weather on mobile